sensor_id;sensor_type;location;lat;lon;timestamp;temperature;humidity
21001;DHT22;10658;50.920;12.238;2022-09-29T00:03:44;6.40;99.90
21001;DHT22;10658;50.920;12.238;2022-09-29T00:07:45;6.30;99.90
21001;DHT22;10658;50.920;12.238;2022-09-29T00:11:47;6.20;99.90
21001;DHT22;10658;50.920;12.238;2022-09-29T00:15:56;6.10;99.90
21001;DHT22;10658;50.920;12.238;2022-09-29T00:19:57;6.10;99.90
21001;DHT22;10658;50.920;12.238;2022-09-29T00:24:00;6.10;99.90
21001;DHT22;10658;50.920;12.238;2022-09-29T00:28:01;6.10;99.90
21001;DHT22;10658;50.920;12.238;2022-09-29T00:32:03;6.10;99.90
21001;DHT22;10658;50.920;12.238;2022-09-29T00:36:08;6.10;99.90
21001;DHT22;10658;50.920;12.238;2022-09-29T00:40:09;6.00;99.90
21001;DHT22;10658;50.920;12.238;2022-09-29T00:48:17;6.00;99.90
21001;DHT22;10658;50.920;12.238;2022-09-29T00:52:31;5.90;99.90
21001;DHT22;10658;50.920;12.238;2022-09-29T00:56:35;5.90;99.90
21001;DHT22;10658;50.920;12.238;2022-09-29T01:00:38;5.80;99.90
21001;DHT22;10658;50.920;12.238;2022-09-29T01:04:40;5.80;99.90
21001;DHT22;10658;50.920;12.238;2022-09-29T01:08:52;5.80;99.90
21001;DHT22;10658;50.920;12.238;2022-09-29T01:12:57;5.70;99.90
21001;DHT22;10658;50.920;12.238;2022-09-29T01:17:00;5.80;99.90
21001;DHT22;10658;50.920;12.238;2022-09-29T01:21:40;5.70;99.90
21001;DHT22;10658;50.920;12.238;2022-09-29T01:26:07;5.60;99.90
21001;DHT22;10658;50.920;12.238;2022-09-29T01:30:22;5.60;99.90
21001;DHT22;10658;50.920;12.238;2022-09-29T01:43:20;5.40;99.90
21001;DHT22;10658;50.920;12.238;2022-09-29T01:47:30;5.50;99.90
21001;DHT22;10658;50.920;12.238;2022-09-29T01:56:04;5.50;99.90
21001;DHT22;10658;50.920;12.238;2022-09-29T02:00:10;5.60;99.90
21001;DHT22;10658;50.920;12.238;2022-09-29T02:04:52;5.60;99.90
21001;DHT22;10658;50.920;12.238;2022-09-29T02:08:56;5.70;99.90
21001;DHT22;10658;50.920;12.238;2022-09-29T02:13:00;5.70;99.90
21001;DHT22;10658;50.920;12.238;2022-09-29T02:17:11;5.70;99.90
21001;DHT22;10658;50.920;12.238;2022-09-29T02:21:13;5.80;99.90
21001;DHT22;10658;50.920;12.238;2022-09-29T02:25:16;5.70;99.90
21001;DHT22;10658;50.920;12.238;2022-09-29T02:29:18;5.60;99.90
21001;DHT22;10658;50.920;12.238;2022-09-29T02:33:22;5.60;99.90
21001;DHT22;10658;50.920;12.238;2022-09-29T02:37:46;5.60;99.90
21001;DHT22;10658;50.920;12.238;2022-09-29T02:42:12;5.50;99.90
21001;DHT22;10658;50.920;12.238;2022-09-29T02:59:48;5.30;99.90
21001;DHT22;10658;50.920;12.238;2022-09-29T03:03:50;5.40;99.90
21001;DHT22;10658;50.920;12.238;2022-09-29T03:07:51;5.30;99.90
21001;DHT22;10658;50.920;12.238;2022-09-29T03:11:52;5.30;99.90
21001;DHT22;10658;50.920;12.238;2022-09-29T03:15:53;5.20;99.90
21001;DHT22;10658;50.920;12.238;2022-09-29T03:19:54;5.20;99.90
21001;DHT22;10658;50.920;12.238;2022-09-29T03:23:56;5.10;99.90
21001;DHT22;10658;50.920;12.238;2022-09-29T03:27:57;5.20;99.90
21001;DHT22;10658;50.920;12.238;2022-09-29T03:31:59;5.30;99.90
21001;DHT22;10658;50.920;12.238;2022-09-29T03:36:00;5.40;99.90
21001;DHT22;10658;50.920;12.238;2022-09-29T03:40:04;5.50;99.90
21001;DHT22;10658;50.920;12.238;2022-09-29T03:44:06;5.60;99.90
21001;DHT22;10658;50.920;12.238;2022-09-29T03:48:07;5.70;99.90
21001;DHT22;10658;50.920;12.238;2022-09-29T03:52:08;5.70;99.90
21001;DHT22;10658;50.920;12.238;2022-09-29T03:56:09;5.80;99.90
21001;DHT22;10658;50.920;12.238;2022-09-29T04:00:11;5.80;99.90
21001;DHT22;10658;50.920;12.238;2022-09-29T04:04:13;5.80;99.90
21001;DHT22;10658;50.920;12.238;2022-09-29T04:08:15;5.90;99.90
21001;DHT22;10658;50.920;12.238;2022-09-29T04:12:16;5.90;99.90
21001;DHT22;10658;50.920;12.238;2022-09-29T04:16:18;6.00;99.90
21001;DHT22;10658;50.920;12.238;2022-09-29T04:20:19;6.00;99.90
21001;DHT22;10658;50.920;12.238;2022-09-29T04:24:20;6.00;99.90
21001;DHT22;10658;50.920;12.238;2022-09-29T04:28:22;6.00;99.90
21001;DHT22;10658;50.920;12.238;2022-09-29T04:32:24;6.00;99.90
21001;DHT22;10658;50.920;12.238;2022-09-29T04:36:25;6.10;99.90
21001;DHT22;10658;50.920;12.238;2022-09-29T04:40:26;6.20;99.90
21001;DHT22;10658;50.920;12.238;2022-09-29T04:44:27;6.20;99.90
21001;DHT22;10658;50.920;12.238;2022-09-29T04:48:29;6.10;99.90
21001;DHT22;10658;50.920;12.238;2022-09-29T04:52:30;6.10;99.90
21001;DHT22;10658;50.920;12.238;2022-09-29T04:56:32;6.10;99.90
21001;DHT22;10658;50.920;12.238;2022-09-29T05:00:33;6.20;99.90
21001;DHT22;10658;50.920;12.238;2022-09-29T05:04:34;6.20;99.90
21001;DHT22;10658;50.920;12.238;2022-09-29T05:08:36;6.20;99.90
21001;DHT22;10658;50.920;12.238;2022-09-29T05:12:37;6.10;99.90
21001;DHT22;10658;50.920;12.238;2022-09-29T05:16:39;6.00;99.90
21001;DHT22;10658;50.920;12.238;2022-09-29T05:20:40;6.00;99.90
21001;DHT22;10658;50.920;12.238;2022-09-29T05:24:41;5.90;99.90
21001;DHT22;10658;50.920;12.238;2022-09-29T05:28:45;5.80;99.90
21001;DHT22;10658;50.920;12.238;2022-09-29T05:32:46;5.80;99.90
21001;DHT22;10658;50.920;12.238;2022-09-29T05:36:48;5.80;99.90
21001;DHT22;10658;50.920;12.238;2022-09-29T05:40:52;5.80;99.90
21001;DHT22;10658;50.920;12.238;2022-09-29T05:44:53;5.80;99.90
21001;DHT22;10658;50.920;12.238;2022-09-29T05:48:54;5.80;99.90
21001;DHT22;10658;50.920;12.238;2022-09-29T05:53:01;5.90;99.90
21001;DHT22;10658;50.920;12.238;2022-09-29T05:57:03;5.90;99.90
21001;DHT22;10658;50.920;12.238;2022-09-29T06:01:09;6.00;99.90
21001;DHT22;10658;50.920;12.238;2022-09-29T06:05:10;6.10;99.90
21001;DHT22;10658;50.920;12.238;2022-09-29T06:13:28;6.80;99.90
21001;DHT22;10658;50.920;12.238;2022-09-29T06:17:30;7.40;99.90
21001;DHT22;10658;50.920;12.238;2022-09-29T06:21:32;7.70;99.90
21001;DHT22;10658;50.920;12.238;2022-09-29T06:25:34;7.80;99.90
21001;DHT22;10658;50.920;12.238;2022-09-29T06:29:36;7.90;99.90
21001;DHT22;10658;50.920;12.238;2022-09-29T06:33:37;8.00;99.90
21001;DHT22;10658;50.920;12.238;2022-09-29T06:37:39;8.00;99.90
21001;DHT22;10658;50.920;12.238;2022-09-29T06:41:43;7.90;99.90
21001;DHT22;10658;50.920;12.238;2022-09-29T06:45:49;7.80;99.90
21001;DHT22;10658;50.920;12.238;2022-09-29T06:49:50;7.80;99.90
21001;DHT22;10658;50.920;12.238;2022-09-29T06:53:53;7.90;99.90
21001;DHT22;10658;50.920;12.238;2022-09-29T06:57:54;8.20;99.90
21001;DHT22;10658;50.920;12.238;2022-09-29T07:01:55;8.50;99.90
21001;DHT22;10658;50.920;12.238;2022-09-29T07:06:00;8.60;99.90
21001;DHT22;10658;50.920;12.238;2022-09-29T07:10:02;8.80;99.90
21001;DHT22;10658;50.920;12.238;2022-09-29T07:14:04;8.90;99.90
21001;DHT22;10658;50.920;12.238;2022-09-29T07:18:05;9.00;99.90
21001;DHT22;10658;50.920;12.238;2022-09-29T07:22:07;9.30;99.90
21001;DHT22;10658;50.920;12.238;2022-09-29T07:26:09;9.50;99.90
21001;DHT22;10658;50.920;12.238;2022-09-29T07:30:11;9.70;99.90
21001;DHT22;10658;50.920;12.238;2022-09-29T07:34:12;9.60;99.90
21001;DHT22;10658;50.920;12.238;2022-09-29T07:38:14;9.60;99.90
21001;DHT22;10658;50.920;12.238;2022-09-29T07:42:16;9.60;99.90
21001;DHT22;10658;50.920;12.238;2022-09-29T07:46:28;9.80;99.90
21001;DHT22;10658;50.920;12.238;2022-09-29T07:50:30;9.80;99.90
21001;DHT22;10658;50.920;12.238;2022-09-29T07:54:34;10.20;99.90
21001;DHT22;10658;50.920;12.238;2022-09-29T07:58:36;10.70;99.90
21001;DHT22;10658;50.920;12.238;2022-09-29T08:02:38;11.10;99.90
21001;DHT22;10658;50.920;12.238;2022-09-29T08:06:39;11.90;99.90
21001;DHT22;10658;50.920;12.238;2022-09-29T08:10:41;12.20;99.90
21001;DHT22;10658;50.920;12.238;2022-09-29T08:14:43;12.80;99.90
21001;DHT22;10658;50.920;12.238;2022-09-29T08:18:44;13.00;99.90
21001;DHT22;10658;50.920;12.238;2022-09-29T08:22:45;13.40;99.90
21001;DHT22;10658;50.920;12.238;2022-09-29T08:26:47;13.30;99.90
21001;DHT22;10658;50.920;12.238;2022-09-29T08:30:51;13.30;99.90
21001;DHT22;10658;50.920;12.238;2022-09-29T08:34:55;13.80;99.90
21001;DHT22;10658;50.920;12.238;2022-09-29T08:38:57;14.40;99.90
21001;DHT22;10658;50.920;12.238;2022-09-29T08:51:47;15.20;99.90
21001;DHT22;10658;50.920;12.238;2022-09-29T08:55:56;14.40;99.90
21001;DHT22;10658;50.920;12.238;2022-09-29T08:59:59;14.70;99.90
21001;DHT22;10658;50.920;12.238;2022-09-29T09:22:20;14.70;99.90
21001;DHT22;10658;50.920;12.238;2022-09-29T09:26:36;15.10;99.90
21001;DHT22;10658;50.920;12.238;2022-09-29T09:34:59;15.50;99.90
21001;DHT22;10658;50.920;12.238;2022-09-29T09:39:09;16.00;99.90
21001;DHT22;10658;50.920;12.238;2022-09-29T09:47:30;15.20;99.90
21001;DHT22;10658;50.920;12.238;2022-09-29T09:55:46;15.60;99.90
21001;DHT22;10658;50.920;12.238;2022-09-29T10:00:09;15.60;99.90
21001;DHT22;10658;50.920;12.238;2022-09-29T10:04:15;15.40;99.90
21001;DHT22;10658;50.920;12.238;2022-09-29T10:08:34;15.40;99.90
21001;DHT22;10658;50.920;12.238;2022-09-29T10:12:40;15.60;99.90
21001;DHT22;10658;50.920;12.238;2022-09-29T10:16:57;16.20;99.90
21001;DHT22;10658;50.920;12.238;2022-09-29T10:20:59;16.90;99.90
21001;DHT22;10658;50.920;12.238;2022-09-29T10:25:17;17.00;99.90
21001;DHT22;10658;50.920;12.238;2022-09-29T10:29:37;16.70;99.90
21001;DHT22;10658;50.920;12.238;2022-09-29T10:33:46;16.50;99.90
21001;DHT22;10658;50.920;12.238;2022-09-29T10:38:24;16.60;99.90
21001;DHT22;10658;50.920;12.238;2022-09-29T10:42:38;17.60;99.90
21001;DHT22;10658;50.920;12.238;2022-09-29T10:46:55;17.60;99.90
21001;DHT22;10658;50.920;12.238;2022-09-29T10:51:02;17.40;99.90
21001;DHT22;10658;50.920;12.238;2022-09-29T10:55:04;16.80;99.90
21001;DHT22;10658;50.920;12.238;2022-09-29T10:59:06;15.90;99.90
21001;DHT22;10658;50.920;12.238;2022-09-29T11:07:18;14.90;99.90
21001;DHT22;10658;50.920;12.238;2022-09-29T11:15:29;15.20;99.90
21001;DHT22;10658;50.920;12.238;2022-09-29T11:19:37;15.40;99.90
21001;DHT22;10658;50.920;12.238;2022-09-29T11:23:50;15.40;99.90
21001;DHT22;10658;50.920;12.238;2022-09-29T12:05:21;15.10;99.90
21001;DHT22;10658;50.920;12.238;2022-09-29T12:10:04;14.90;99.90
21001;DHT22;10658;50.920;12.238;2022-09-29T12:14:23;14.70;99.90
21001;DHT22;10658;50.920;12.238;2022-09-29T12:18:36;14.50;99.90
21001;DHT22;10658;50.920;12.238;2022-09-29T12:22:42;14.30;99.90
21001;DHT22;10658;50.920;12.238;2022-09-29T12:26:48;14.10;99.90
21001;DHT22;10658;50.920;12.238;2022-09-29T12:30:57;13.80;99.90
21001;DHT22;10658;50.920;12.238;2022-09-29T12:35:34;13.50;99.90
21001;DHT22;10658;50.920;12.238;2022-09-29T12:44:32;13.20;99.90
21001;DHT22;10658;50.920;12.238;2022-09-29T12:57:14;13.80;99.90
21001;DHT22;10658;50.920;12.238;2022-09-29T13:01:28;14.20;99.90
21001;DHT22;10658;50.920;12.238;2022-09-29T13:31:31;14.20;99.90
21001;DHT22;10658;50.920;12.238;2022-09-29T13:35:42;14.10;99.90
21001;DHT22;10658;50.920;12.238;2022-09-29T13:40:18;13.90;99.90
21001;DHT22;10658;50.920;12.238;2022-09-29T13:44:23;13.70;99.90
21001;DHT22;10658;50.920;12.238;2022-09-29T13:52:38;13.50;99.90
21001;DHT22;10658;50.920;12.238;2022-09-29T14:11:36;13.60;99.90
21001;DHT22;10658;50.920;12.238;2022-09-29T14:15:40;13.50;99.90
21001;DHT22;10658;50.920;12.238;2022-09-29T14:20:04;13.40;99.90
21001;DHT22;10658;50.920;12.238;2022-09-29T14:28:37;13.50;99.90
21001;DHT22;10658;50.920;12.238;2022-09-29T14:32:56;13.50;99.90
21001;DHT22;10658;50.920;12.238;2022-09-29T14:36:59;13.50;99.90
21001;DHT22;10658;50.920;12.238;2022-09-29T14:45:08;12.40;99.90
21001;DHT22;10658;50.920;12.238;2022-09-29T15:02:36;10.80;99.90
21001;DHT22;10658;50.920;12.238;2022-09-29T15:06:47;10.60;99.90
21001;DHT22;10658;50.920;12.238;2022-09-29T15:10:48;10.60;99.90
21001;DHT22;10658;50.920;12.238;2022-09-29T15:14:50;10.80;99.90
21001;DHT22;10658;50.920;12.238;2022-09-29T15:27:38;11.60;99.90
21001;DHT22;10658;50.920;12.238;2022-09-29T15:31:43;11.80;99.90
21001;DHT22;10658;50.920;12.238;2022-09-29T15:35:47;11.80;99.90
21001;DHT22;10658;50.920;12.238;2022-09-29T15:39:52;11.80;99.90
21001;DHT22;10658;50.920;12.238;2022-09-29T15:43:58;11.70;99.90
21001;DHT22;10658;50.920;12.238;2022-09-29T15:48:05;11.60;99.90
21001;DHT22;10658;50.920;12.238;2022-09-29T15:52:12;11.70;99.90
21001;DHT22;10658;50.920;12.238;2022-09-29T15:56:14;11.70;99.90
21001;DHT22;10658;50.920;12.238;2022-09-29T16:04:23;11.60;99.90
21001;DHT22;10658;50.920;12.238;2022-09-29T16:08:25;11.60;99.90
21001;DHT22;10658;50.920;12.238;2022-09-29T16:12:32;11.50;99.90
21001;DHT22;10658;50.920;12.238;2022-09-29T16:16:39;11.40;99.90
21001;DHT22;10658;50.920;12.238;2022-09-29T16:20:43;11.30;99.90
21001;DHT22;10658;50.920;12.238;2022-09-29T16:29:34;10.90;99.90
21001;DHT22;10658;50.920;12.238;2022-09-29T16:33:35;10.80;99.90
21001;DHT22;10658;50.920;12.238;2022-09-29T16:37:44;10.80;99.90
21001;DHT22;10658;50.920;12.238;2022-09-29T16:41:47;10.80;99.90
21001;DHT22;10658;50.920;12.238;2022-09-29T16:45:54;10.70;99.90
21001;DHT22;10658;50.920;12.238;2022-09-29T16:50:08;10.60;99.90
21001;DHT22;10658;50.920;12.238;2022-09-29T16:54:17;10.60;99.90
21001;DHT22;10658;50.920;12.238;2022-09-29T16:58:19;10.60;99.90
21001;DHT22;10658;50.920;12.238;2022-09-29T17:02:22;10.60;99.90
21001;DHT22;10658;50.920;12.238;2022-09-29T17:06:24;10.60;99.90
21001;DHT22;10658;50.920;12.238;2022-09-29T17:10:25;10.70;99.90
21001;DHT22;10658;50.920;12.238;2022-09-29T17:14:26;10.70;99.90
21001;DHT22;10658;50.920;12.238;2022-09-29T17:18:29;10.60;99.90
21001;DHT22;10658;50.920;12.238;2022-09-29T17:22:34;10.50;99.90
21001;DHT22;10658;50.920;12.238;2022-09-29T17:26:42;10.50;99.90
21001;DHT22;10658;50.920;12.238;2022-09-29T17:31:03;10.50;99.90
21001;DHT22;10658;50.920;12.238;2022-09-29T17:35:05;10.50;99.90
21001;DHT22;10658;50.920;12.238;2022-09-29T17:39:08;10.50;99.90
21001;DHT22;10658;50.920;12.238;2022-09-29T17:43:09;10.50;99.90
21001;DHT22;10658;50.920;12.238;2022-09-29T17:47:14;10.50;99.90
21001;DHT22;10658;50.920;12.238;2022-09-29T17:51:18;10.50;99.90
21001;DHT22;10658;50.920;12.238;2022-09-29T17:55:20;10.40;99.90
21001;DHT22;10658;50.920;12.238;2022-09-29T17:59:22;10.20;99.90
21001;DHT22;10658;50.920;12.238;2022-09-29T18:03:24;10.20;99.90
21001;DHT22;10658;50.920;12.238;2022-09-29T18:07:25;10.30;99.90
21001;DHT22;10658;50.920;12.238;2022-09-29T18:11:26;10.30;99.90
21001;DHT22;10658;50.920;12.238;2022-09-29T18:15:27;10.30;99.90
21001;DHT22;10658;50.920;12.238;2022-09-29T18:19:28;10.40;99.90
21001;DHT22;10658;50.920;12.238;2022-09-29T18:23:29;10.40;99.90
21001;DHT22;10658;50.920;12.238;2022-09-29T18:27:30;10.40;99.90
21001;DHT22;10658;50.920;12.238;2022-09-29T18:31:33;10.50;99.90
21001;DHT22;10658;50.920;12.238;2022-09-29T18:44:56;10.30;99.90
21001;DHT22;10658;50.920;12.238;2022-09-29T18:48:57;10.30;99.90
21001;DHT22;10658;50.920;12.238;2022-09-29T18:52:59;10.20;99.90
21001;DHT22;10658;50.920;12.238;2022-09-29T18:57:01;10.20;99.90
21001;DHT22;10658;50.920;12.238;2022-09-29T19:01:03;10.10;99.90
21001;DHT22;10658;50.920;12.238;2022-09-29T19:05:04;10.10;99.90
21001;DHT22;10658;50.920;12.238;2022-09-29T19:09:07;10.00;99.90
21001;DHT22;10658;50.920;12.238;2022-09-29T19:13:10;10.10;99.90
21001;DHT22;10658;50.920;12.238;2022-09-29T19:17:14;10.00;99.90
21001;DHT22;10658;50.920;12.238;2022-09-29T19:21:15;10.00;99.90
21001;DHT22;10658;50.920;12.238;2022-09-29T19:25:19;10.10;99.90
21001;DHT22;10658;50.920;12.238;2022-09-29T19:29:20;10.10;99.90
21001;DHT22;10658;50.920;12.238;2022-09-29T19:33:22;10.10;99.90
21001;DHT22;10658;50.920;12.238;2022-09-29T19:37:24;10.20;99.90
21001;DHT22;10658;50.920;12.238;2022-09-29T19:41:26;10.20;99.90
21001;DHT22;10658;50.920;12.238;2022-09-29T19:45:33;10.20;99.90
21001;DHT22;10658;50.920;12.238;2022-09-29T19:49:37;10.20;99.90
21001;DHT22;10658;50.920;12.238;2022-09-29T19:53:38;10.20;99.90
21001;DHT22;10658;50.920;12.238;2022-09-29T19:57:39;10.10;99.90
21001;DHT22;10658;50.920;12.238;2022-09-29T20:01:42;10.00;99.90
21001;DHT22;10658;50.920;12.238;2022-09-29T20:05:44;10.00;99.90
21001;DHT22;10658;50.920;12.238;2022-09-29T20:09:45;10.10;99.90
21001;DHT22;10658;50.920;12.238;2022-09-29T20:13:46;10.10;99.90
21001;DHT22;10658;50.920;12.238;2022-09-29T20:17:47;10.00;99.90
21001;DHT22;10658;50.920;12.238;2022-09-29T20:21:50;10.10;99.90
21001;DHT22;10658;50.920;12.238;2022-09-29T20:25:59;10.10;99.90
21001;DHT22;10658;50.920;12.238;2022-09-29T20:30:01;10.00;99.90
21001;DHT22;10658;50.920;12.238;2022-09-29T20:34:06;9.90;99.90
21001;DHT22;10658;50.920;12.238;2022-09-29T20:38:06;9.80;99.90
21001;DHT22;10658;50.920;12.238;2022-09-29T20:42:07;9.80;99.90
21001;DHT22;10658;50.920;12.238;2022-09-29T20:46:10;9.80;99.90
21001;DHT22;10658;50.920;12.238;2022-09-29T20:50:11;9.90;99.90
21001;DHT22;10658;50.920;12.238;2022-09-29T20:54:12;9.90;99.90
21001;DHT22;10658;50.920;12.238;2022-09-29T20:58:14;9.90;99.90
21001;DHT22;10658;50.920;12.238;2022-09-29T21:02:15;9.90;99.90
21001;DHT22;10658;50.920;12.238;2022-09-29T21:06:18;9.90;99.90
21001;DHT22;10658;50.920;12.238;2022-09-29T21:10:20;9.90;99.90
21001;DHT22;10658;50.920;12.238;2022-09-29T21:14:23;9.90;99.90
21001;DHT22;10658;50.920;12.238;2022-09-29T21:18:27;9.90;99.90
21001;DHT22;10658;50.920;12.238;2022-09-29T21:22:28;9.90;99.90
21001;DHT22;10658;50.920;12.238;2022-09-29T21:26:29;9.90;99.90
21001;DHT22;10658;50.920;12.238;2022-09-29T21:30:31;9.90;99.90
21001;DHT22;10658;50.920;12.238;2022-09-29T21:34:32;9.90;99.90
21001;DHT22;10658;50.920;12.238;2022-09-29T21:38:37;9.80;99.90
21001;DHT22;10658;50.920;12.238;2022-09-29T21:42:38;9.90;99.90
21001;DHT22;10658;50.920;12.238;2022-09-29T21:46:40;9.90;99.90
21001;DHT22;10658;50.920;12.238;2022-09-29T21:50:41;9.90;99.90
21001;DHT22;10658;50.920;12.238;2022-09-29T21:54:43;9.80;99.90
21001;DHT22;10658;50.920;12.238;2022-09-29T21:58:44;9.70;99.90
21001;DHT22;10658;50.920;12.238;2022-09-29T22:02:46;9.60;99.90
21001;DHT22;10658;50.920;12.238;2022-09-29T22:06:47;9.60;99.90
21001;DHT22;10658;50.920;12.238;2022-09-29T22:10:49;9.50;99.90
21001;DHT22;10658;50.920;12.238;2022-09-29T22:14:51;9.40;99.90
21001;DHT22;10658;50.920;12.238;2022-09-29T22:18:52;9.30;99.90
21001;DHT22;10658;50.920;12.238;2022-09-29T22:22:53;9.20;99.90
21001;DHT22;10658;50.920;12.238;2022-09-29T22:26:54;9.10;99.90
21001;DHT22;10658;50.920;12.238;2022-09-29T22:31:06;9.00;99.90
21001;DHT22;10658;50.920;12.238;2022-09-29T22:35:11;8.90;99.90
21001;DHT22;10658;50.920;12.238;2022-09-29T22:39:12;8.90;99.90
21001;DHT22;10658;50.920;12.238;2022-09-29T22:43:14;8.80;99.90
21001;DHT22;10658;50.920;12.238;2022-09-29T22:47:15;8.80;99.90
21001;DHT22;10658;50.920;12.238;2022-09-29T22:51:16;8.80;99.90
21001;DHT22;10658;50.920;12.238;2022-09-29T22:55:19;8.80;99.90
21001;DHT22;10658;50.920;12.238;2022-09-29T22:59:20;8.80;99.90
21001;DHT22;10658;50.920;12.238;2022-09-29T23:03:21;8.80;99.90
21001;DHT22;10658;50.920;12.238;2022-09-29T23:07:22;8.80;99.90
21001;DHT22;10658;50.920;12.238;2022-09-29T23:11:24;8.80;99.90
21001;DHT22;10658;50.920;12.238;2022-09-29T23:15:25;8.80;99.90
21001;DHT22;10658;50.920;12.238;2022-09-29T23:19:27;8.80;99.90
21001;DHT22;10658;50.920;12.238;2022-09-29T23:23:29;8.90;99.90
21001;DHT22;10658;50.920;12.238;2022-09-29T23:27:32;8.90;99.90
21001;DHT22;10658;50.920;12.238;2022-09-29T23:31:33;8.90;99.90
21001;DHT22;10658;50.920;12.238;2022-09-29T23:35:35;8.80;99.90
21001;DHT22;10658;50.920;12.238;2022-09-29T23:39:36;8.70;99.90
21001;DHT22;10658;50.920;12.238;2022-09-29T23:43:37;8.60;99.90
21001;DHT22;10658;50.920;12.238;2022-09-29T23:47:41;8.60;99.90
21001;DHT22;10658;50.920;12.238;2022-09-29T23:51:47;8.60;99.90
21001;DHT22;10658;50.920;12.238;2022-09-29T23:55:49;8.60;99.90
21001;DHT22;10658;50.920;12.238;2022-09-29T23:59:50;8.70;99.90
